createdAt,value
2018-04-07T00:00:31.733Z,8.95
2018-04-07T00:01:32.439Z,9.02
2018-04-07T00:02:33.145Z,8.94
2018-04-07T00:03:33.853Z,8.97
2018-04-07T00:04:34.560Z,9.03
2018-04-07T00:05:35.278Z,8.99
2018-04-07T00:06:35.985Z,9.00
2018-04-07T00:07:36.693Z,8.97
2018-04-07T00:08:37.401Z,8.94
2018-04-07T00:09:38.108Z,8.94
2018-04-07T00:10:38.821Z,8.99
2018-04-07T00:11:39.533Z,8.92
2018-04-07T00:12:40.240Z,8.92
2018-04-07T00:13:40.948Z,8.81
2018-04-07T00:14:41.654Z,8.79
2018-04-07T00:15:42.362Z,8.82
2018-04-07T00:16:43.070Z,8.92
2018-04-07T00:17:43.786Z,8.85
2018-04-07T00:18:44.494Z,8.81
2018-04-07T00:19:45.200Z,8.85
2018-04-07T00:20:45.906Z,8.84
2018-04-07T00:21:46.616Z,8.82
2018-04-07T00:22:47.333Z,8.74
2018-04-07T00:23:48.039Z,8.74
2018-04-07T00:24:48.757Z,8.74
2018-04-07T00:25:49.464Z,8.74
2018-04-07T00:26:50.171Z,8.78
2018-04-07T00:27:50.878Z,8.73
2018-04-07T00:28:51.587Z,8.67
2018-04-07T00:29:52.300Z,8.73
2018-04-07T00:30:53.008Z,8.71
2018-04-07T00:31:53.714Z,8.74
2018-04-07T00:32:54.421Z,8.76
2018-04-07T00:33:55.126Z,8.73
2018-04-07T00:34:55.832Z,8.63
2018-04-07T00:35:56.542Z,8.66
2018-04-07T00:36:57.250Z,8.64
2018-04-07T00:37:57.958Z,8.64
2018-04-07T00:38:58.668Z,8.69
2018-04-07T00:39:59.374Z,8.66
2018-04-07T00:41:00.082Z,8.66
2018-04-07T00:42:00.791Z,8.66
2018-04-07T00:43:01.498Z,8.66
2018-04-07T00:44:02.209Z,8.69
2018-04-07T00:45:02.928Z,8.67
2018-04-07T00:46:03.644Z,8.69
2018-04-07T00:47:04.362Z,8.63
2018-04-07T00:48:05.068Z,8.64
2018-04-07T00:49:05.787Z,8.66
2018-04-07T00:50:06.491Z,8.70
2018-04-07T00:51:07.198Z,8.66
2018-04-07T00:52:07.904Z,8.63
2018-04-07T00:53:08.612Z,8.61
2018-04-07T00:54:09.319Z,8.58
2018-04-07T00:55:10.024Z,8.58
2018-04-07T00:56:10.731Z,8.56
2018-04-07T00:57:11.439Z,8.55
2018-04-07T00:58:12.147Z,8.60
2018-04-07T00:59:12.855Z,8.49
2018-04-07T01:00:13.564Z,8.56
2018-04-07T01:01:14.272Z,8.49
2018-04-07T01:02:14.990Z,8.51
2018-04-07T01:03:15.706Z,8.44
2018-04-07T01:04:16.412Z,8.46
2018-04-07T01:05:17.118Z,8.42
2018-04-07T01:06:17.825Z,8.45
2018-04-07T01:07:18.533Z,8.48
2018-04-07T01:08:19.252Z,8.34
2018-04-07T01:09:19.967Z,8.42
2018-04-07T01:10:20.675Z,8.38
2018-04-07T01:11:21.387Z,8.36
2018-04-07T01:12:22.099Z,8.33
2018-04-07T01:13:22.806Z,8.38
2018-04-07T01:14:23.512Z,8.28
2018-04-07T01:15:24.218Z,8.34
2018-04-07T01:16:24.929Z,8.38
2018-04-07T01:17:25.631Z,8.23
2018-04-07T01:18:26.336Z,8.38
2018-04-07T01:19:27.053Z,8.23
2018-04-07T01:20:27.759Z,8.27
2018-04-07T01:21:28.465Z,8.23
2018-04-07T01:22:29.188Z,8.15
2018-04-07T01:23:29.901Z,8.26
2018-04-07T01:24:30.606Z,8.26
2018-04-07T01:25:31.312Z,8.13
2018-04-07T01:26:32.018Z,8.20
2018-04-07T01:27:32.725Z,8.09
2018-04-07T01:28:33.432Z,8.15
2018-04-07T01:29:34.143Z,8.08
2018-04-07T01:30:34.848Z,8.12
2018-04-07T01:32:51.140Z,8.00
2018-04-07T01:33:51.846Z,8.09
2018-04-07T01:34:52.555Z,8.12
2018-04-07T01:35:53.274Z,8.10
2018-04-07T01:36:53.980Z,8.09
2018-04-07T01:37:54.689Z,8.10
2018-04-07T01:38:55.404Z,8.13
2018-04-07T01:39:56.112Z,8.10
2018-04-07T01:40:56.820Z,8.10
2018-04-07T01:41:57.525Z,8.09
2018-04-07T01:42:58.546Z,8.13
2018-04-07T01:43:59.254Z,8.08
2018-04-07T01:44:59.961Z,8.00
2018-04-07T01:46:00.666Z,7.98
2018-04-07T01:47:01.378Z,8.03
2018-04-07T01:48:02.351Z,7.98
2018-04-07T01:49:03.057Z,8.06
2018-04-07T01:50:03.764Z,8.09
2018-04-07T01:51:04.484Z,8.00
2018-04-07T01:52:05.192Z,8.10
2018-04-07T01:53:05.913Z,8.03
2018-04-07T01:54:06.622Z,8.00
2018-04-07T01:55:07.340Z,8.00
2018-04-07T01:56:08.047Z,7.97
2018-04-07T01:57:08.755Z,7.98
2018-04-07T01:58:09.464Z,7.94
2018-04-07T01:59:10.172Z,7.98
2018-04-07T02:00:10.891Z,7.97
2018-04-07T02:01:11.600Z,7.95
2018-04-07T02:02:12.308Z,7.98
2018-04-07T02:03:13.028Z,7.94
2018-04-07T02:04:13.733Z,7.90
2018-04-07T02:05:14.440Z,7.88
2018-04-07T02:06:15.148Z,7.87
2018-04-07T02:07:15.872Z,7.88
2018-04-07T02:08:16.578Z,7.87
2018-04-07T02:09:17.300Z,7.90
2018-04-07T02:10:18.006Z,7.90
2018-04-07T02:11:18.712Z,7.83
2018-04-07T02:12:19.434Z,7.79
2018-04-07T02:13:20.137Z,7.77
2018-04-07T02:14:20.843Z,7.85
2018-04-07T02:15:21.551Z,7.82
2018-04-07T02:16:22.257Z,7.82
2018-04-07T02:17:22.968Z,7.79
2018-04-07T02:18:23.675Z,7.77
2018-04-07T02:19:24.402Z,7.72
2018-04-07T02:20:25.112Z,7.76
2018-04-07T02:21:25.820Z,7.79
2018-04-07T02:22:26.528Z,7.73
2018-04-07T02:23:27.236Z,7.75
2018-04-07T02:24:27.940Z,7.75
2018-04-07T02:25:28.646Z,7.79
2018-04-07T02:26:29.353Z,7.70
2018-04-07T02:27:30.060Z,7.82
2018-04-07T02:28:30.767Z,7.75
2018-04-07T02:29:31.474Z,7.83
2018-04-07T02:30:32.184Z,7.77
2018-04-07T02:31:32.902Z,7.83
2018-04-07T02:32:33.609Z,7.75
2018-04-07T02:33:34.315Z,7.72
2018-04-07T02:34:35.023Z,7.76
2018-04-07T02:35:35.730Z,7.69
2018-04-07T02:36:36.437Z,7.69
2018-04-07T02:37:37.145Z,7.76
2018-04-07T02:38:37.864Z,7.73
2018-04-07T02:39:38.575Z,7.70
2018-04-07T02:40:39.288Z,7.75
2018-04-07T02:41:40.006Z,7.75
2018-04-07T02:42:40.724Z,7.61
2018-04-07T02:43:41.431Z,7.63
2018-04-07T02:44:42.151Z,7.67
2018-04-07T02:45:42.860Z,7.69
2018-04-07T02:46:43.569Z,7.56
2018-04-07T02:47:44.277Z,7.66
2018-04-07T02:48:44.989Z,7.66
2018-04-07T02:49:45.708Z,7.61
2018-04-07T02:50:46.411Z,7.63
2018-04-07T02:51:47.133Z,7.67
2018-04-07T02:52:47.838Z,7.72
2018-04-07T02:53:48.557Z,7.72
2018-04-07T02:54:49.263Z,7.63
2018-04-07T02:55:49.971Z,7.66
2018-04-07T02:56:50.713Z,7.63
2018-04-07T02:57:51.388Z,7.50
2018-04-07T02:58:52.092Z,7.54
2018-04-07T02:59:52.798Z,7.54
2018-04-07T03:00:53.505Z,7.56
2018-04-07T03:01:54.211Z,7.50
2018-04-07T03:02:54.918Z,7.50
2018-04-07T03:03:55.647Z,7.54
2018-04-07T03:04:56.354Z,7.50
2018-04-07T03:05:57.063Z,7.54
2018-04-07T03:06:57.769Z,7.58
2018-04-07T03:07:58.476Z,7.50
2018-04-07T03:08:59.195Z,7.53
2018-04-07T03:09:59.900Z,7.54
2018-04-07T03:11:00.606Z,7.56
2018-04-07T03:12:01.328Z,7.53
2018-04-07T03:13:02.036Z,7.57
2018-04-07T03:14:02.755Z,7.54
2018-04-07T03:15:03.464Z,7.48
2018-04-07T03:16:04.173Z,7.54
2018-04-07T03:17:04.881Z,7.40
2018-04-07T03:18:05.602Z,7.51
2018-04-07T03:19:06.308Z,7.50
2018-04-07T03:20:07.015Z,7.39
2018-04-07T03:21:07.723Z,7.51
2018-04-07T03:22:08.432Z,7.45
2018-04-07T03:23:09.139Z,7.42
2018-04-07T03:24:09.858Z,7.45
2018-04-07T03:25:10.563Z,7.36
2018-04-07T03:26:11.270Z,7.43
2018-04-07T03:27:11.987Z,7.42
2018-04-07T03:28:12.691Z,7.43
2018-04-07T03:29:13.411Z,7.40
2018-04-07T03:30:14.120Z,7.38
2018-04-07T03:31:14.827Z,7.42
2018-04-07T03:32:15.532Z,7.40
2018-04-07T03:33:16.238Z,7.33
2018-04-07T03:34:16.947Z,7.39
2018-04-07T03:35:17.650Z,7.33
2018-04-07T03:36:18.368Z,7.29
2018-04-07T03:37:19.076Z,7.31
2018-04-07T03:38:19.779Z,7.32
2018-04-07T03:39:20.498Z,7.32
2018-04-07T03:40:21.207Z,7.28
2018-04-07T03:41:21.911Z,7.45
2018-04-07T03:42:22.619Z,7.33
2018-04-07T03:43:23.326Z,7.40
2018-04-07T03:44:24.035Z,7.35
2018-04-07T03:45:24.749Z,7.33
2018-04-07T03:46:25.458Z,7.40
2018-04-07T03:47:26.176Z,7.39
2018-04-07T03:48:26.884Z,7.31
2018-04-07T03:49:27.591Z,7.31
2018-04-07T03:50:28.331Z,7.21
2018-04-07T03:51:29.018Z,7.23
2018-04-07T03:52:29.741Z,7.18
2018-04-07T03:53:30.447Z,7.24
2018-04-07T03:54:31.156Z,7.18
2018-04-07T03:55:31.863Z,7.32
2018-04-07T03:56:32.582Z,7.25
2018-04-07T03:57:33.303Z,7.28
2018-04-07T03:58:34.011Z,7.25
2018-04-07T03:59:34.717Z,7.23
2018-04-07T04:00:35.435Z,7.23
2018-04-07T04:01:36.141Z,7.18
2018-04-07T04:02:36.848Z,7.21
2018-04-07T04:03:37.555Z,7.21
2018-04-07T04:04:38.263Z,7.21
2018-04-07T04:05:38.969Z,7.18
2018-04-07T04:06:39.676Z,7.18
2018-04-07T04:07:40.382Z,7.11
2018-04-07T04:08:41.089Z,7.17
2018-04-07T04:09:41.794Z,7.15
2018-04-07T04:10:42.501Z,7.23
2018-04-07T04:11:43.209Z,7.20
2018-04-07T04:12:43.928Z,7.15
2018-04-07T04:13:44.633Z,7.15
2018-04-07T04:14:45.340Z,7.17
2018-04-07T04:15:46.046Z,7.05
2018-04-07T04:16:46.752Z,7.10
2018-04-07T04:17:47.461Z,7.20
2018-04-07T04:18:48.169Z,7.10
2018-04-07T04:19:48.875Z,7.17
2018-04-07T04:20:49.583Z,7.06
2018-04-07T04:21:50.302Z,7.14
2018-04-07T04:22:51.022Z,7.07
2018-04-07T04:23:51.728Z,7.05
2018-04-07T04:24:52.436Z,7.13
2018-04-07T04:25:53.142Z,7.10
2018-04-07T04:26:53.850Z,7.02
2018-04-07T04:27:54.569Z,7.17
2018-04-07T04:28:55.279Z,7.00
2018-04-07T04:29:55.983Z,7.00
2018-04-07T04:30:56.701Z,7.10
2018-04-07T04:31:57.413Z,7.03
2018-04-07T04:32:58.120Z,7.00
2018-04-07T04:33:58.841Z,7.00
2018-04-07T04:34:59.564Z,6.95
2018-04-07T04:36:00.268Z,7.00
2018-04-07T04:37:00.980Z,6.95
2018-04-07T04:38:01.698Z,6.96
2018-04-07T04:39:02.407Z,6.99
2018-04-07T04:40:03.111Z,6.99
2018-04-07T04:41:03.820Z,6.99
2018-04-07T04:42:04.527Z,6.97
2018-04-07T04:43:05.235Z,6.93
2018-04-07T04:44:05.953Z,6.99
2018-04-07T04:45:06.662Z,6.99
2018-04-07T04:46:07.373Z,6.96
2018-04-07T04:47:08.079Z,6.95
2018-04-07T04:48:08.788Z,7.06
2018-04-07T04:49:09.497Z,6.96
2018-04-07T04:50:10.206Z,6.97
2018-04-07T04:51:10.928Z,6.95
2018-04-07T04:52:11.652Z,6.95
2018-04-07T04:53:12.365Z,6.95
2018-04-07T04:54:13.071Z,6.99
2018-04-07T04:55:13.790Z,7.03
2018-04-07T04:56:14.502Z,6.88
2018-04-07T04:57:15.213Z,6.97
2018-04-07T04:58:15.923Z,6.87
2018-04-07T04:59:16.635Z,7.00
2018-04-07T05:00:17.358Z,6.99
2018-04-07T05:01:18.079Z,6.97
2018-04-07T05:02:18.789Z,6.96
2018-04-07T05:03:19.513Z,6.96
2018-04-07T05:04:20.224Z,6.97
2018-04-07T05:05:20.947Z,6.99
2018-04-07T05:06:21.667Z,7.00
2018-04-07T05:07:22.383Z,6.96
2018-04-07T05:08:23.092Z,7.05
2018-04-07T05:10:39.031Z,7.13
2018-04-07T05:11:39.740Z,7.03
2018-04-07T05:12:40.451Z,7.03
2018-04-07T05:13:41.163Z,7.15
2018-04-07T05:14:41.874Z,7.00
2018-04-07T05:15:42.597Z,7.05
2018-04-07T05:16:43.318Z,7.05
2018-04-07T05:17:44.027Z,7.03
2018-04-07T05:18:44.740Z,7.11
2018-04-07T05:19:45.450Z,7.05
2018-04-07T05:20:46.160Z,7.06
2018-04-07T05:21:46.886Z,7.07
2018-04-07T05:22:47.596Z,7.15
2018-04-07T05:23:48.319Z,7.21
2018-04-07T05:24:49.032Z,7.17
2018-04-07T05:25:49.743Z,7.15
2018-04-07T05:26:50.468Z,7.23
2018-04-07T05:27:51.180Z,7.18
2018-04-07T05:28:51.905Z,7.18
2018-04-07T05:29:52.618Z,7.23
2018-04-07T05:30:53.345Z,7.24
2018-04-07T05:31:54.056Z,7.29
2018-04-07T05:32:54.768Z,7.32
2018-04-07T05:33:55.493Z,7.40
2018-04-07T05:34:56.205Z,7.39
2018-04-07T05:35:56.916Z,7.35
2018-04-07T05:36:57.645Z,7.32
2018-04-07T05:37:58.356Z,7.39
2018-04-07T05:38:59.068Z,7.51
2018-04-07T05:39:59.781Z,7.42
2018-04-07T05:41:00.494Z,7.51
2018-04-07T05:42:01.207Z,7.56
2018-04-07T05:43:01.919Z,7.63
2018-04-07T05:44:02.643Z,7.72
2018-04-07T05:45:03.358Z,7.76
2018-04-07T05:46:04.084Z,7.77
2018-04-07T05:47:04.797Z,7.79
2018-04-07T05:48:05.510Z,7.93
2018-04-07T05:49:06.221Z,7.88
2018-04-07T05:50:06.991Z,7.91
2018-04-07T05:51:07.665Z,7.94
2018-04-07T05:52:08.386Z,8.00
2018-04-07T05:53:09.105Z,8.03
2018-04-07T05:54:09.817Z,8.09
2018-04-07T05:55:10.529Z,8.13
2018-04-07T05:56:11.240Z,7.97
2018-04-07T05:57:11.951Z,8.03
2018-04-07T05:58:12.677Z,8.10
2018-04-07T05:59:13.387Z,8.10
2018-04-07T06:00:14.099Z,8.13
2018-04-07T06:01:14.814Z,8.23
2018-04-07T06:02:15.528Z,8.28
2018-04-07T06:03:16.242Z,8.31
2018-04-07T06:04:16.955Z,8.34
2018-04-07T06:05:17.685Z,8.44
2018-04-07T06:06:18.412Z,8.61
2018-04-07T06:07:19.126Z,8.63
2018-04-07T06:08:19.841Z,8.61
2018-04-07T06:09:20.556Z,8.69
2018-04-07T06:10:21.287Z,8.63
2018-04-07T06:11:22.011Z,8.71
2018-04-07T06:12:22.724Z,8.70
2018-04-07T06:13:23.439Z,8.87
2018-04-07T06:14:24.166Z,8.91
2018-04-07T06:15:24.882Z,8.89
2018-04-07T06:16:25.595Z,9.06
2018-04-07T06:17:26.320Z,9.11
2018-04-07T06:18:27.036Z,9.13
2018-04-07T06:19:27.757Z,9.13
2018-04-07T06:20:28.514Z,9.29
2018-04-07T06:21:29.196Z,9.32
2018-04-07T06:22:29.927Z,9.47
2018-04-07T06:23:30.636Z,9.56
2018-04-07T06:24:31.366Z,9.65
2018-04-07T06:25:32.096Z,9.69
2018-04-07T06:26:32.810Z,9.79
2018-04-07T06:27:33.541Z,9.82
2018-04-07T06:28:34.267Z,9.89
2018-04-07T06:29:34.996Z,10.01
2018-04-07T06:30:35.725Z,9.99
2018-04-07T06:31:36.443Z,10.09
2018-04-07T06:32:37.162Z,10.17
2018-04-07T06:33:37.896Z,10.35
2018-04-07T06:34:38.614Z,10.41
2018-04-07T06:35:39.332Z,10.48
2018-04-07T06:36:40.050Z,10.44
2018-04-07T06:37:40.767Z,10.59
2018-04-07T06:38:41.484Z,10.67
2018-04-07T06:39:42.204Z,10.71
2018-04-07T06:40:42.924Z,10.75
2018-04-07T06:41:43.648Z,10.82
2018-04-07T06:42:44.363Z,10.84
2018-04-07T06:43:45.094Z,10.84
2018-04-07T06:44:45.813Z,11.11
2018-04-07T06:45:46.532Z,11.29
2018-04-07T06:46:47.256Z,11.41
2018-04-07T06:47:47.971Z,11.50
2018-04-07T06:48:48.690Z,11.44
2018-04-07T06:49:49.409Z,11.50
2018-04-07T06:50:50.128Z,11.60
2018-04-07T06:51:50.847Z,11.86
2018-04-07T06:52:51.566Z,11.95
2018-04-07T06:53:52.286Z,12.18
2018-04-07T06:54:53.007Z,12.22
2018-04-07T06:55:53.726Z,12.20
2018-04-07T06:56:54.447Z,12.29
2018-04-07T06:57:55.179Z,12.25
2018-04-07T06:58:55.912Z,12.37
2018-04-07T06:59:56.631Z,12.37
2018-04-07T07:00:57.368Z,12.35
2018-04-07T07:01:58.087Z,12.47
2018-04-07T07:02:58.808Z,12.60
2018-04-07T07:03:59.527Z,12.60
2018-04-07T07:05:00.248Z,12.72
2018-04-07T07:06:00.967Z,12.85
2018-04-07T07:07:01.690Z,13.05
2018-04-07T07:08:02.405Z,13.12
2018-04-07T07:09:03.124Z,13.01
2018-04-07T07:10:03.844Z,13.00
2018-04-07T07:11:04.570Z,12.95
2018-04-07T07:12:05.288Z,12.85
2018-04-07T07:13:06.008Z,12.82
2018-04-07T07:14:06.730Z,13.00
2018-04-07T07:15:07.452Z,12.98
2018-04-07T07:16:08.174Z,13.01
2018-04-07T07:17:08.895Z,13.11
2018-04-07T07:18:09.631Z,13.31
2018-04-07T07:19:10.364Z,13.18
2018-04-07T07:20:11.083Z,12.86
2018-04-07T07:21:11.805Z,12.78
2018-04-07T07:22:12.530Z,12.47
2018-04-07T07:23:13.253Z,12.68
2018-04-07T07:24:14.010Z,12.79
2018-04-07T07:25:14.700Z,12.79
2018-04-07T07:26:15.422Z,13.05
2018-04-07T07:27:16.145Z,13.12
2018-04-07T07:28:16.868Z,13.12
2018-04-07T07:29:17.592Z,13.15
2018-04-07T07:30:18.317Z,13.25
2018-04-07T07:31:19.049Z,13.31
2018-04-07T07:32:19.775Z,13.35
2018-04-07T07:33:20.506Z,13.33
2018-04-07T07:34:21.228Z,13.41
2018-04-07T07:35:21.950Z,13.30
2018-04-07T07:36:22.674Z,13.19
2018-04-07T07:37:23.398Z,13.41
2018-04-07T07:38:24.130Z,13.49
2018-04-07T07:39:24.856Z,13.68
2018-04-07T07:40:25.586Z,13.89
2018-04-07T07:41:26.311Z,14.11
2018-04-07T07:42:27.047Z,14.12
2018-04-07T07:43:27.772Z,14.15
2018-04-07T07:44:28.494Z,13.87
2018-04-07T07:45:29.233Z,13.90
2018-04-07T07:46:29.960Z,13.62
2018-04-07T07:47:30.685Z,13.62
2018-04-07T07:48:31.412Z,13.50
2018-04-07T07:49:32.137Z,13.30
2018-04-07T07:50:32.861Z,13.52
2018-04-07T07:51:33.590Z,13.41
2018-04-07T07:52:34.313Z,13.15
2018-04-07T07:53:35.036Z,13.35
2018-04-07T07:54:35.761Z,13.62
2018-04-07T07:55:36.487Z,13.72
2018-04-07T07:56:37.212Z,14.05
2018-04-07T07:57:37.953Z,14.18
2018-04-07T07:58:38.677Z,14.37
2018-04-07T07:59:39.403Z,14.58
2018-04-07T08:00:40.132Z,14.65
2018-04-07T08:01:40.868Z,14.62
2018-04-07T08:02:41.595Z,14.96
2018-04-07T08:03:42.320Z,15.19
2018-04-07T08:04:43.050Z,15.31
2018-04-07T08:05:43.778Z,15.21
2018-04-07T08:06:44.504Z,15.52
2018-04-07T08:07:45.246Z,15.72
2018-04-07T08:08:45.975Z,15.61
2018-04-07T08:09:46.705Z,16.04
2018-04-07T08:10:47.435Z,16.15
2018-04-07T08:11:48.169Z,16.28
2018-04-07T08:12:48.897Z,16.66
2018-04-07T08:13:49.641Z,16.94
2018-04-07T08:14:50.378Z,16.99
2018-04-07T08:15:51.112Z,16.84
2018-04-07T08:16:51.845Z,16.66
2018-04-07T08:17:52.581Z,16.78
2018-04-07T08:18:53.314Z,16.20
2018-04-07T08:19:54.050Z,16.08
2018-04-07T08:20:54.781Z,15.91
2018-04-07T08:21:55.521Z,15.95
2018-04-07T08:22:56.251Z,16.29
2018-04-07T08:23:56.993Z,16.61
2018-04-07T08:24:57.730Z,16.65
2018-04-07T08:25:58.463Z,16.51
2018-04-07T08:26:59.197Z,16.91
2018-04-07T08:27:59.935Z,16.58
2018-04-07T08:29:00.667Z,16.35
2018-04-07T08:30:01.418Z,16.38
2018-04-07T08:31:02.147Z,16.26
2018-04-07T08:32:02.888Z,16.17
2018-04-07T08:33:03.617Z,16.01
2018-04-07T08:34:04.352Z,16.15
2018-04-07T08:35:05.086Z,16.33
2018-04-07T08:36:05.833Z,16.10
2018-04-07T08:37:06.569Z,16.60
2018-04-07T08:38:07.304Z,17.05
2018-04-07T08:39:08.048Z,17.38
2018-04-07T08:40:08.781Z,17.41
2018-04-07T08:41:09.514Z,17.56
2018-04-07T08:42:10.244Z,17.92
2018-04-07T08:43:10.991Z,18.22
2018-04-07T08:44:11.741Z,17.82
2018-04-07T08:45:12.475Z,18.11
2018-04-07T08:46:13.206Z,18.19
2018-04-07T08:47:13.940Z,18.44
2018-04-07T08:48:14.686Z,18.66
2018-04-07T08:49:15.420Z,18.63
2018-04-07T08:50:16.151Z,18.47
2018-04-07T08:51:16.897Z,18.77
2018-04-07T08:52:17.633Z,18.34
2018-04-07T08:53:18.365Z,18.40
2018-04-07T08:54:19.098Z,18.25
2018-04-07T08:55:19.833Z,18.38
2018-04-07T08:56:20.582Z,18.29
2018-04-07T08:57:21.322Z,18.70
2018-04-07T08:58:22.049Z,18.89
2018-04-07T08:59:22.795Z,18.59
2018-04-07T09:00:23.528Z,18.63
2018-04-07T09:01:24.262Z,18.71
2018-04-07T09:02:24.998Z,18.90
2018-04-07T09:03:25.743Z,19.24
2018-04-07T09:04:26.481Z,19.09
2018-04-07T09:05:27.224Z,19.58
2018-04-07T09:06:27.956Z,19.95
2018-04-07T09:07:28.691Z,20.39
2018-04-07T09:08:29.424Z,20.60
2018-04-07T09:09:30.159Z,20.56
2018-04-07T09:10:30.894Z,20.36
2018-04-07T09:11:31.627Z,20.77
2018-04-07T09:12:32.361Z,20.03
2018-04-07T09:13:33.096Z,19.92
2018-04-07T09:14:33.829Z,19.74
2018-04-07T09:15:34.577Z,19.64
2018-04-07T09:16:35.312Z,19.95
2018-04-07T09:17:36.061Z,20.18
2018-04-07T09:18:36.796Z,20.22
2018-04-07T09:19:37.529Z,20.47
2018-04-07T09:20:38.266Z,20.10
2018-04-07T09:21:39.001Z,19.95
2018-04-07T09:22:39.736Z,19.99
2018-04-07T09:23:40.472Z,19.34
2018-04-07T09:24:41.207Z,19.40
2018-04-07T09:25:41.942Z,19.02
2018-04-07T09:26:42.678Z,19.18
2018-04-07T09:27:43.412Z,19.31
2018-04-07T09:28:44.148Z,19.21
2018-04-07T09:29:44.882Z,19.24
2018-04-07T09:30:45.617Z,19.24
2018-04-07T09:31:46.364Z,19.39
2018-04-07T09:32:47.100Z,19.30
2018-04-07T09:33:47.839Z,19.66
2018-04-07T09:34:48.570Z,19.96
2018-04-07T09:35:49.306Z,19.67
2018-04-07T09:36:50.041Z,19.56
2018-04-07T09:37:50.776Z,19.49
2018-04-07T09:38:51.510Z,19.79
2018-04-07T09:39:52.249Z,19.91
2018-04-07T09:40:52.982Z,19.88
2018-04-07T09:41:53.721Z,19.92
2018-04-07T09:42:54.450Z,19.96
2018-04-07T09:43:55.186Z,20.39
2018-04-07T09:44:55.921Z,20.39
2018-04-07T09:45:56.657Z,20.62
2018-04-07T09:46:57.392Z,20.59
2018-04-07T09:47:58.125Z,20.66
2018-04-07T09:48:58.862Z,20.59
2018-04-07T09:49:59.596Z,20.19
2018-04-07T09:51:00.344Z,20.60
2018-04-07T09:52:01.080Z,20.59
2018-04-07T09:53:01.829Z,20.59
2018-04-07T09:54:02.580Z,20.82
2018-04-07T09:55:03.316Z,20.69
2018-04-07T09:56:04.051Z,20.66
2018-04-07T09:57:04.799Z,20.74
2018-04-07T09:58:05.534Z,20.69
2018-04-07T09:59:06.270Z,20.82
2018-04-07T10:00:07.005Z,21.06
2018-04-07T10:01:07.740Z,21.30
2018-04-07T10:02:08.482Z,21.25
2018-04-07T10:03:09.211Z,21.18
2018-04-07T10:04:09.948Z,21.55
2018-04-07T10:05:10.685Z,21.29
2018-04-07T10:06:11.419Z,21.54
2018-04-07T10:07:12.155Z,21.93
2018-04-07T10:08:12.895Z,22.08
2018-04-07T10:09:13.627Z,21.76
2018-04-07T10:10:14.363Z,21.98
2018-04-07T10:11:15.101Z,22.20
2018-04-07T10:12:15.837Z,21.60
2018-04-07T10:13:16.572Z,21.39
2018-04-07T10:14:17.307Z,21.05
2018-04-07T10:15:18.044Z,21.35
2018-04-07T10:16:18.782Z,21.30
2018-04-07T10:17:19.533Z,21.22
2018-04-07T10:18:20.280Z,21.17
2018-04-07T10:19:21.015Z,21.29
2018-04-07T10:20:21.751Z,21.45
2018-04-07T10:21:22.505Z,21.45
2018-04-07T10:22:23.240Z,21.14
2018-04-07T10:23:23.973Z,21.33
2018-04-07T10:24:24.711Z,21.87
2018-04-07T10:25:25.446Z,21.83
2018-04-07T10:26:26.179Z,21.50
2018-04-07T10:27:26.920Z,21.87
2018-04-07T10:28:27.668Z,21.99
2018-04-07T10:29:28.403Z,22.07
2018-04-07T10:30:29.141Z,21.95
2018-04-07T10:31:29.877Z,22.06
2018-04-07T10:32:30.612Z,22.13
2018-04-07T10:33:31.350Z,21.85
2018-04-07T10:34:32.085Z,21.83
2018-04-07T10:35:32.820Z,22.00
2018-04-07T10:36:33.555Z,22.90
2018-04-07T10:37:34.296Z,22.87
2018-04-07T10:38:35.035Z,23.02
2018-04-07T10:39:35.775Z,23.46
2018-04-07T10:40:36.513Z,23.23
2018-04-07T10:41:37.258Z,22.98
2018-04-07T10:42:37.998Z,22.91
2018-04-07T10:43:38.739Z,22.85
2018-04-07T10:44:39.482Z,23.32
2018-04-07T10:45:40.236Z,22.94
2018-04-07T10:46:40.985Z,23.48
2018-04-07T10:47:41.730Z,23.56
2018-04-07T10:48:42.481Z,24.03
2018-04-07T10:49:43.229Z,24.32
2018-04-07T10:50:43.974Z,24.68
2018-04-07T10:51:44.723Z,24.76
2018-04-07T10:52:45.506Z,25.01
2018-04-07T10:53:46.223Z,25.69
2018-04-07T10:54:46.971Z,25.69
2018-04-07T10:55:47.718Z,24.99
2018-04-07T10:56:48.462Z,25.21
2018-04-07T10:57:49.206Z,25.43
2018-04-07T10:58:49.950Z,25.14
2018-04-07T10:59:50.721Z,25.31
2018-04-07T11:00:51.437Z,25.38
2018-04-07T11:01:52.181Z,25.87
2018-04-07T11:02:52.923Z,25.83
2018-04-07T11:03:53.664Z,26.19
2018-04-07T11:04:54.408Z,25.90
2018-04-07T11:05:55.151Z,25.88
2018-04-07T11:06:55.892Z,26.03
2018-04-07T11:07:56.635Z,25.38
2018-04-07T11:08:57.379Z,25.63
2018-04-07T11:09:58.123Z,25.35
2018-04-07T11:10:58.868Z,24.29
2018-04-07T11:11:59.608Z,24.65
2018-04-07T11:13:00.352Z,24.66
2018-04-07T11:14:01.096Z,24.76
2018-04-07T11:15:01.850Z,25.16
2018-04-07T11:16:02.593Z,24.21
2018-04-07T11:17:03.338Z,24.28
2018-04-07T11:18:04.080Z,24.48
2018-04-07T11:19:04.834Z,24.86
2018-04-07T11:20:05.587Z,25.38
2018-04-07T11:21:06.333Z,25.72
2018-04-07T11:22:07.077Z,25.70
2018-04-07T11:23:07.823Z,25.43
2018-04-07T11:24:08.578Z,25.18
2018-04-07T11:25:09.321Z,24.77
2018-04-07T11:26:10.066Z,24.42
2018-04-07T11:27:10.807Z,25.14
2018-04-07T11:28:11.550Z,25.36
2018-04-07T11:29:12.296Z,25.48
2018-04-07T11:30:13.040Z,26.02
2018-04-07T11:31:13.782Z,26.41
2018-04-07T11:32:14.527Z,26.03
2018-04-07T11:33:15.272Z,26.13
2018-04-07T11:34:16.015Z,25.77
2018-04-07T11:35:16.771Z,25.08
2018-04-07T11:36:17.514Z,25.08
2018-04-07T11:37:18.258Z,24.51
2018-04-07T11:38:19.000Z,24.21
2018-04-07T11:39:19.755Z,24.11
2018-04-07T11:40:20.510Z,24.48
2018-04-07T11:41:21.264Z,24.76
2018-04-07T11:42:22.013Z,24.89
2018-04-07T11:43:22.753Z,24.76
2018-04-07T11:44:23.493Z,24.86
2018-04-07T11:45:24.236Z,24.81
2018-04-07T11:46:24.987Z,24.88
2018-04-07T11:47:25.734Z,24.99
2018-04-07T11:48:26.493Z,25.11
2018-04-07T11:49:27.237Z,24.95
2018-04-07T11:50:27.981Z,25.29
2018-04-07T11:51:28.733Z,24.96
2018-04-07T11:52:29.479Z,25.50
2018-04-07T11:53:30.218Z,25.53
2018-04-07T11:54:30.960Z,24.86
2018-04-07T11:55:31.706Z,25.55
2018-04-07T11:56:32.449Z,25.91
2018-04-07T11:57:33.195Z,26.19
2018-04-07T11:58:33.937Z,26.41
2018-04-07T11:59:34.680Z,26.25
2018-04-07T12:00:35.421Z,26.07
2018-04-07T12:01:36.165Z,25.95
2018-04-07T12:02:36.924Z,26.45
2018-04-07T12:03:37.650Z,26.40
2018-04-07T12:04:38.391Z,26.37
2018-04-07T12:05:39.134Z,25.73
2018-04-07T12:06:39.879Z,25.68
2018-04-07T12:07:40.625Z,25.93
2018-04-07T12:08:41.364Z,26.06
2018-04-07T12:09:42.105Z,26.37
2018-04-07T12:10:42.845Z,26.45
2018-04-07T12:11:43.606Z,26.09
2018-04-07T12:12:44.330Z,25.95
2018-04-07T12:13:45.075Z,25.83
2018-04-07T12:14:45.833Z,25.77
2018-04-07T12:15:46.572Z,25.29
2018-04-07T12:16:47.319Z,25.33
2018-04-07T12:17:48.079Z,25.33
2018-04-07T12:18:48.840Z,25.33
2018-04-07T12:19:49.568Z,25.75
2018-04-07T12:20:50.315Z,25.50
2018-04-07T12:21:51.073Z,25.55
2018-04-07T12:22:51.819Z,25.59
2018-04-07T12:23:52.558Z,25.31
2018-04-07T12:24:53.302Z,25.55
2018-04-07T12:25:54.045Z,26.13
2018-04-07T12:26:54.788Z,26.07
2018-04-07T12:27:55.535Z,26.05
2018-04-07T12:28:56.280Z,26.60
2018-04-07T12:29:57.021Z,26.81
2018-04-07T12:30:57.762Z,26.71
2018-04-07T12:31:58.504Z,26.88
2018-04-07T12:32:59.259Z,27.14
2018-04-07T12:33:59.999Z,27.21
2018-04-07T12:35:00.752Z,27.33
2018-04-07T12:36:01.494Z,26.68
2018-04-07T12:37:02.247Z,26.97
2018-04-07T12:38:02.991Z,27.25
2018-04-07T12:39:03.746Z,27.75
2018-04-07T12:40:04.490Z,27.67
2018-04-07T12:41:05.231Z,27.92
2018-04-07T12:42:05.973Z,28.00
2018-04-07T12:43:06.728Z,27.07
2018-04-07T12:44:07.470Z,27.25
2018-04-07T12:45:08.209Z,27.59
2018-04-07T12:46:08.950Z,27.32
2018-04-07T12:47:09.698Z,26.81
2018-04-07T12:48:10.448Z,27.05
2018-04-07T12:49:11.203Z,26.90
2018-04-07T12:50:11.943Z,26.90
2018-04-07T12:51:12.713Z,27.21
2018-04-07T12:52:13.425Z,27.27
2018-04-07T12:53:14.166Z,27.14
2018-04-07T12:54:14.907Z,27.44
2018-04-07T12:55:15.662Z,27.73
2018-04-07T12:56:16.405Z,27.75
2018-04-07T12:57:17.149Z,28.01
2018-04-07T12:58:17.890Z,27.44
2018-04-07T12:59:18.646Z,27.32
2018-04-07T13:00:19.391Z,27.49
2018-04-07T13:01:20.131Z,27.35
2018-04-07T13:02:20.873Z,27.29
2018-04-07T13:03:21.616Z,27.42
2018-04-07T13:04:22.360Z,27.15
2018-04-07T13:05:23.112Z,26.95
2018-04-07T13:06:23.851Z,27.36
2018-04-07T13:07:24.592Z,27.60
2018-04-07T13:08:25.334Z,27.75
2018-04-07T13:09:26.072Z,27.58
2018-04-07T13:10:26.815Z,27.51
2018-04-07T13:11:27.557Z,27.36
2018-04-07T13:12:28.301Z,27.35
2018-04-07T13:13:29.043Z,27.27
2018-04-07T13:14:29.797Z,27.05
2018-04-07T13:15:30.536Z,27.65
2018-04-07T13:16:31.277Z,28.19
2018-04-07T13:17:32.019Z,28.76